createdAt,value
2019-01-18T00:01:31.929Z,1.45
2019-01-18T00:04:01.403Z,1.29
2019-01-18T00:06:30.899Z,1.19
2019-01-18T00:09:00.427Z,1.12
2019-01-18T00:11:31.652Z,1.10
2019-01-18T00:14:01.155Z,1.19
2019-01-18T00:16:30.602Z,1.12
2019-01-18T00:19:00.005Z,1.01
2019-01-18T00:21:29.506Z,0.92
2019-01-18T00:23:59.057Z,0.85
2019-01-18T00:26:28.456Z,0.83
2019-01-18T00:28:57.864Z,0.80
2019-01-18T00:31:27.412Z,0.83
2019-01-18T00:33:56.894Z,0.98
2019-01-18T00:36:26.288Z,0.86
2019-01-18T00:38:55.718Z,0.80
2019-01-18T00:41:25.214Z,0.77
2019-01-18T00:43:54.721Z,0.74
2019-01-18T00:46:24.157Z,0.69
2019-01-18T00:48:53.657Z,0.67
2019-01-18T00:51:23.041Z,0.63
2019-01-18T00:53:52.464Z,0.81
2019-01-18T00:56:21.962Z,0.85
2019-01-18T00:58:51.474Z,0.87
2019-01-18T01:01:20.895Z,0.82
2019-01-18T01:03:50.513Z,0.81
2019-01-18T01:06:19.963Z,0.76
2019-01-18T01:08:51.108Z,0.76
2019-01-18T01:11:21.541Z,0.75
2019-01-18T01:13:50.931Z,0.77
2019-01-18T01:16:20.466Z,0.80
2019-01-18T01:18:49.959Z,0.68
2019-01-18T01:21:19.346Z,0.66
2019-01-18T01:23:48.770Z,0.60
2019-01-18T01:26:18.354Z,0.71
2019-01-18T01:28:47.865Z,0.81
2019-01-18T01:31:17.466Z,0.76
2019-01-18T01:33:46.967Z,0.79
2019-01-18T01:36:16.478Z,1.00
2019-01-18T01:38:45.920Z,0.99
2019-01-18T01:41:15.395Z,0.85
2019-01-18T01:43:44.901Z,0.80
2019-01-18T01:46:14.363Z,0.78
2019-01-18T01:48:43.748Z,0.81
2019-01-18T01:51:13.247Z,0.82
2019-01-18T01:53:43.796Z,0.93
2019-01-18T01:56:13.182Z,0.98
2019-01-18T01:58:42.638Z,1.00
2019-01-18T02:01:12.196Z,0.97
2019-01-18T02:03:41.679Z,0.92
2019-01-18T02:06:11.063Z,0.79
2019-01-18T02:08:40.792Z,0.70
2019-01-18T02:11:10.266Z,0.63
2019-01-18T02:13:39.730Z,0.73
2019-01-18T02:16:09.272Z,0.78
2019-01-18T02:18:38.774Z,0.72
2019-01-18T02:21:08.175Z,0.68
2019-01-18T02:23:37.616Z,0.65
2019-01-18T02:26:07.219Z,0.61
2019-01-18T02:28:36.703Z,0.58
2019-01-18T02:31:06.230Z,0.55
2019-01-18T02:33:35.614Z,0.63
2019-01-18T02:36:05.097Z,0.72
2019-01-18T02:38:34.629Z,0.66
2019-01-18T02:41:04.036Z,0.57
2019-01-18T02:43:33.436Z,0.61
2019-01-18T02:46:03.174Z,0.59
2019-01-18T02:48:32.655Z,0.50
2019-01-18T02:51:02.042Z,0.48
2019-01-18T02:53:31.487Z,0.50
2019-01-18T02:56:00.976Z,0.45
2019-01-18T02:58:30.466Z,0.40
2019-01-18T03:00:59.908Z,0.36
2019-01-18T03:03:29.285Z,0.31
2019-01-18T03:05:58.783Z,0.15
2019-01-18T03:08:28.319Z,-0.01
2019-01-18T03:10:57.696Z,-0.04
2019-01-18T03:13:27.183Z,0.05
2019-01-18T03:15:56.703Z,0.13
2019-01-18T03:18:26.198Z,0.10
2019-01-18T03:20:55.582Z,0.05
2019-01-18T03:23:25.030Z,-0.03
2019-01-18T03:25:54.535Z,0.04
2019-01-18T03:28:23.926Z,0.04
2019-01-18T03:30:53.651Z,-0.01
2019-01-18T03:33:23.152Z,0.01
2019-01-18T03:35:52.570Z,0.02
2019-01-18T03:38:22.068Z,-0.01
2019-01-18T03:40:51.551Z,-0.06
2019-01-18T03:43:21.027Z,0.01
2019-01-18T03:45:50.459Z,0.02
2019-01-18T03:48:19.868Z,-0.02
2019-01-18T03:50:49.387Z,-0.09
2019-01-18T03:53:19.101Z,-0.08
2019-01-18T03:55:48.516Z,-0.09
2019-01-18T03:58:17.903Z,-0.12
2019-01-18T04:00:47.626Z,-0.11
2019-01-18T04:03:17.142Z,-0.21
2019-01-18T04:05:46.566Z,-0.27
2019-01-18T04:08:16.107Z,-0.31
2019-01-18T04:10:45.489Z,-0.25
2019-01-18T04:13:14.897Z,-0.21
2019-01-18T04:15:44.527Z,-0.14
2019-01-18T04:18:14.038Z,-0.13
2019-01-18T04:20:43.448Z,-0.19
2019-01-18T04:23:12.888Z,-0.25
2019-01-18T04:25:42.467Z,-0.31
2019-01-18T04:28:11.952Z,-0.34
2019-01-18T04:30:41.381Z,-0.34
2019-01-18T04:33:10.792Z,-0.35
2019-01-18T04:35:40.290Z,-0.40
2019-01-18T04:38:11.324Z,-0.35
2019-01-18T04:40:40.812Z,-0.43
2019-01-18T04:43:10.215Z,-0.52
2019-01-18T04:45:40.070Z,-0.59
2019-01-18T04:48:09.440Z,-0.60
2019-01-18T04:50:39.018Z,-0.62
2019-01-18T04:53:08.543Z,-0.64
2019-01-18T04:55:37.946Z,-0.61
2019-01-18T04:58:07.442Z,-0.72
2019-01-18T05:00:41.078Z,-0.83
2019-01-18T05:03:08.184Z,-0.88
2019-01-18T05:05:37.586Z,-0.96
2019-01-18T05:08:07.021Z,-1.06
2019-01-18T05:10:36.507Z,-1.10
2019-01-18T05:13:06.134Z,-0.98
2019-01-18T05:15:35.586Z,-1.01
2019-01-18T05:18:05.053Z,-0.99
2019-01-18T05:20:34.538Z,-1.01
2019-01-18T05:23:04.066Z,-1.04
2019-01-18T05:25:33.438Z,-1.01
2019-01-18T05:28:02.960Z,-0.96
2019-01-18T05:30:32.399Z,-1.04
2019-01-18T05:33:01.785Z,-1.06
2019-01-18T05:35:31.380Z,-1.04
2019-01-18T05:38:01.139Z,-1.10
2019-01-18T05:40:31.726Z,-1.17
2019-01-18T05:43:01.179Z,-1.24
2019-01-18T05:45:30.745Z,-1.16
2019-01-18T05:48:00.245Z,-1.11
2019-01-18T05:50:30.620Z,-1.03
2019-01-18T05:53:04.116Z,-1.01
2019-01-18T05:55:33.616Z,-1.02
2019-01-18T05:58:03.301Z,-1.02
2019-01-18T06:00:46.395Z,-0.85
2019-01-18T06:03:15.798Z,-0.85
2019-01-18T06:05:45.720Z,-0.68
2019-01-18T06:08:15.451Z,-0.60
2019-01-18T06:10:44.954Z,-0.60
2019-01-18T06:13:14.451Z,-0.65
2019-01-18T06:15:43.957Z,-0.67
2019-01-18T06:18:13.359Z,-0.67
2019-01-18T06:20:42.965Z,-0.65
2019-01-18T06:23:12.685Z,-0.59
2019-01-18T06:26:36.049Z,-0.47
2019-01-18T06:29:05.811Z,-0.42
2019-01-18T06:31:35.392Z,-0.38
2019-01-18T06:34:04.892Z,-0.35
2019-01-18T06:36:34.484Z,-0.35
2019-01-18T06:39:05.423Z,-0.22
2019-01-18T06:41:41.897Z,-0.11
2019-01-18T06:44:11.397Z,-0.06
2019-01-18T06:46:40.828Z,-0.03
2019-01-18T06:49:11.443Z,-0.01
2019-01-18T06:51:41.357Z,0.01
2019-01-18T06:54:10.768Z,0.01
2019-01-18T06:56:40.434Z,0.05
2019-01-18T06:59:09.948Z,0.04
2019-01-18T07:04:44.938Z,-0.01
2019-01-18T07:07:15.052Z,0.02
2019-01-18T07:09:44.615Z,0.13
2019-01-18T07:12:14.142Z,0.16
2019-01-18T07:14:44.257Z,0.25
2019-01-18T07:17:13.783Z,0.28
2019-01-18T07:19:43.579Z,0.45
2019-01-18T07:22:13.004Z,0.62
2019-01-18T07:24:42.649Z,0.79
2019-01-18T07:27:12.208Z,0.92
2019-01-18T07:29:41.639Z,1.00
2019-01-18T07:32:11.320Z,1.01
2019-01-18T07:34:41.148Z,1.05
2019-01-18T07:37:11.036Z,1.15
2019-01-18T07:39:40.509Z,1.20
2019-01-18T07:42:10.057Z,1.26
2019-01-18T07:44:39.552Z,1.47
2019-01-18T07:47:08.962Z,1.68
2019-01-18T07:49:41.000Z,1.78
2019-01-18T07:52:10.814Z,1.89
2019-01-18T07:54:40.316Z,1.96
2019-01-18T07:57:11.095Z,1.99
2019-01-18T07:59:43.287Z,2.03
2019-01-18T08:02:12.807Z,2.06
2019-01-18T08:04:42.368Z,2.15
2019-01-18T08:07:11.872Z,2.17
2019-01-18T08:09:41.301Z,2.31
2019-01-18T08:12:11.178Z,2.41
2019-01-18T08:14:40.721Z,2.49
2019-01-18T08:17:12.101Z,2.54
2019-01-18T08:19:42.040Z,2.79
2019-01-18T08:22:11.571Z,2.87
2019-01-18T08:24:41.528Z,2.95
2019-01-18T08:27:11.542Z,3.06
2019-01-18T08:29:41.162Z,3.31
2019-01-18T08:32:10.660Z,3.37
2019-01-18T08:34:40.376Z,3.40
2019-01-18T08:37:09.857Z,3.56
2019-01-18T08:39:39.287Z,3.62
2019-01-18T08:42:08.877Z,3.72
2019-01-18T08:44:38.410Z,3.91
2019-01-18T08:47:10.235Z,4.10
2019-01-18T08:49:40.006Z,4.14
2019-01-18T08:52:09.757Z,4.16
2019-01-18T08:54:39.269Z,4.22
2019-01-18T08:57:09.036Z,4.28
2019-01-18T08:59:38.627Z,4.43
2019-01-18T09:02:08.987Z,4.54
2019-01-18T09:04:42.837Z,4.65
2019-01-18T09:07:12.399Z,4.76
2019-01-18T09:09:41.932Z,4.86
2019-01-18T09:12:11.417Z,4.90
2019-01-18T09:14:40.886Z,4.99
2019-01-18T09:17:10.400Z,5.03
2019-01-18T09:19:40.234Z,5.15
2019-01-18T09:22:09.629Z,5.25
2019-01-18T09:24:39.066Z,5.38
2019-01-18T09:27:08.947Z,5.36
2019-01-18T09:29:38.586Z,5.48
2019-01-18T09:32:08.209Z,5.60
2019-01-18T09:34:38.186Z,5.75
2019-01-18T09:37:07.787Z,5.90
2019-01-18T09:39:37.383Z,6.02
2019-01-18T09:42:13.537Z,6.04
2019-01-18T09:44:43.362Z,6.17
2019-01-18T09:47:12.784Z,6.29
2019-01-18T09:49:42.879Z,6.34
2019-01-18T09:52:12.633Z,6.35
2019-01-18T09:54:42.280Z,6.44
2019-01-18T09:57:11.810Z,6.57
2019-01-18T09:59:41.212Z,6.66
2019-01-18T10:02:10.870Z,6.77
2019-01-18T10:04:40.428Z,6.93
2019-01-18T10:07:09.851Z,7.04
2019-01-18T10:09:39.379Z,7.14
2019-01-18T10:12:08.840Z,7.22
2019-01-18T10:14:38.340Z,7.18
2019-01-18T10:17:07.865Z,7.44
2019-01-18T10:19:37.427Z,7.65
2019-01-18T10:22:06.930Z,7.73
2019-01-18T10:24:36.456Z,7.86
2019-01-18T10:27:05.984Z,8.06
2019-01-18T10:29:35.496Z,8.10
2019-01-18T10:32:05.841Z,8.25
2019-01-18T10:34:36.490Z,8.30
2019-01-18T10:37:06.240Z,8.31
2019-01-18T10:39:35.843Z,8.40
2019-01-18T10:42:05.283Z,8.51
2019-01-18T10:44:34.701Z,8.53
2019-01-18T10:47:04.183Z,8.74
2019-01-18T10:49:33.662Z,8.94
2019-01-18T10:52:03.258Z,9.17
2019-01-18T10:54:32.757Z,9.31
2019-01-18T10:57:02.251Z,9.44
2019-01-18T10:59:31.646Z,9.52
2019-01-18T11:02:07.276Z,9.50
2019-01-18T11:04:32.669Z,9.38
2019-01-18T11:07:02.141Z,9.49
2019-01-18T11:09:31.547Z,9.56
2019-01-18T11:12:01.080Z,9.56
2019-01-18T11:14:30.623Z,9.34
2019-01-18T11:17:00.000Z,9.36
2019-01-18T11:19:29.611Z,9.41
2019-01-18T11:21:59.311Z,9.43
2019-01-18T11:24:28.801Z,9.42
2019-01-18T11:26:58.258Z,9.49
2019-01-18T11:29:27.728Z,9.59
2019-01-18T11:31:57.139Z,9.52
2019-01-18T11:34:26.601Z,9.54
2019-01-18T11:36:57.354Z,9.61
2019-01-18T11:39:27.345Z,9.70
2019-01-18T11:41:56.960Z,9.82
2019-01-18T11:44:26.454Z,10.02
2019-01-18T11:46:55.941Z,10.27
2019-01-18T11:49:25.482Z,10.53
2019-01-18T11:51:54.882Z,10.73
2019-01-18T11:54:24.325Z,11.01
2019-01-18T11:56:53.969Z,11.17
2019-01-18T11:59:23.542Z,11.29
2019-01-18T12:01:53.007Z,11.34
2019-01-18T12:04:22.481Z,11.35
2019-01-18T12:06:51.988Z,11.33
2019-01-18T12:09:21.436Z,11.20
2019-01-18T12:11:51.031Z,11.39
2019-01-18T12:14:20.513Z,11.46
2019-01-18T12:16:49.932Z,11.44
2019-01-18T12:19:19.392Z,11.48
2019-01-18T12:21:48.893Z,11.45
2019-01-18T12:24:18.743Z,11.46
2019-01-18T12:26:48.196Z,11.48
2019-01-18T12:29:17.613Z,11.47
2019-01-18T12:31:47.117Z,11.50
2019-01-18T12:34:17.012Z,11.19
2019-01-18T12:36:46.408Z,11.28
2019-01-18T12:39:15.878Z,11.40
2019-01-18T12:41:45.438Z,11.50
2019-01-18T12:44:15.068Z,11.55
2019-01-18T12:46:44.441Z,11.62
2019-01-18T12:49:13.975Z,11.30
2019-01-18T12:51:43.415Z,11.44
2019-01-18T12:54:12.867Z,11.42
2019-01-18T12:56:42.426Z,11.29
2019-01-18T12:59:11.961Z,11.21
2019-01-18T13:01:41.368Z,11.05
2019-01-18T13:04:10.886Z,10.89
2019-01-18T13:06:40.421Z,10.89
2019-01-18T13:09:09.906Z,10.63
2019-01-18T13:11:39.599Z,10.84
2019-01-18T13:14:09.051Z,11.00
2019-01-18T13:16:43.937Z,11.03
2019-01-18T13:19:24.346Z,11.04
2019-01-18T13:21:54.096Z,11.07
2019-01-18T13:24:23.584Z,10.85
2019-01-18T13:26:53.199Z,11.00
2019-01-18T13:29:22.745Z,11.04
2019-01-18T13:31:52.139Z,11.05
2019-01-18T13:34:21.666Z,10.95
2019-01-18T13:36:51.220Z,11.12
2019-01-18T13:39:20.816Z,10.94
2019-01-18T13:41:50.243Z,10.85
2019-01-18T13:44:19.966Z,10.95
2019-01-18T13:46:49.571Z,10.98
2019-01-18T13:49:19.056Z,11.00
2019-01-18T13:51:48.557Z,10.65
2019-01-18T13:54:17.991Z,10.52
2019-01-18T13:56:47.570Z,10.65
2019-01-18T13:59:17.138Z,10.61
2019-01-18T14:01:46.552Z,10.61
2019-01-18T14:04:15.985Z,10.52
2019-01-18T14:06:45.612Z,10.54
2019-01-18T14:09:15.051Z,10.53
2019-01-18T14:11:44.540Z,10.40
2019-01-18T14:14:14.136Z,10.32
2019-01-18T14:16:43.582Z,10.31
2019-01-18T14:19:13.017Z,10.38
2019-01-18T14:21:42.579Z,10.31
2019-01-18T14:24:12.080Z,10.23
2019-01-18T14:26:41.494Z,10.22
2019-01-18T14:29:11.016Z,10.14
2019-01-18T14:31:40.528Z,10.13
2019-01-18T14:34:10.014Z,10.17
2019-01-18T14:36:39.581Z,10.08
2019-01-18T14:39:11.568Z,9.95
2019-01-18T14:41:41.158Z,9.94
2019-01-18T14:44:10.698Z,9.89
2019-01-18T14:46:40.138Z,9.92
2019-01-18T14:49:09.641Z,9.85
2019-01-18T14:51:39.579Z,9.82
2019-01-18T14:54:08.979Z,9.72
2019-01-18T14:56:38.466Z,9.62
2019-01-18T14:59:08.130Z,9.46
2019-01-18T15:01:37.617Z,9.34
2019-01-18T15:04:07.021Z,9.34
2019-01-18T15:06:36.583Z,9.36
2019-01-18T15:09:10.417Z,9.36
2019-01-18T15:11:39.853Z,9.35
2019-01-18T15:14:09.534Z,9.31
2019-01-18T15:16:39.060Z,9.25
2019-01-18T15:19:08.730Z,9.24
2019-01-18T15:21:38.458Z,9.27
2019-01-18T15:24:07.896Z,9.17
2019-01-18T15:26:37.400Z,9.11
2019-01-18T15:29:07.009Z,9.17
2019-01-18T15:31:36.513Z,9.15
2019-01-18T15:34:06.231Z,9.12
2019-01-18T15:36:35.886Z,9.07
2019-01-18T15:39:09.644Z,9.06
2019-01-18T15:41:39.201Z,9.03
2019-01-18T15:44:08.833Z,9.02
2019-01-18T15:46:38.288Z,9.02
2019-01-18T15:49:07.701Z,9.02
2019-01-18T15:51:37.264Z,8.93
2019-01-18T15:54:06.746Z,8.91
2019-01-18T15:56:36.174Z,8.77
2019-01-18T15:59:05.838Z,8.59
2019-01-18T16:01:35.364Z,8.53
2019-01-18T16:04:04.967Z,8.48
2019-01-18T16:06:34.469Z,8.45
2019-01-18T16:09:07.056Z,8.38
2019-01-18T16:11:36.476Z,8.39
2019-01-18T16:14:06.868Z,8.32
2019-01-18T16:16:47.426Z,8.21
2019-01-18T16:19:17.046Z,8.18
2019-01-18T16:21:47.652Z,8.21
2019-01-18T16:24:17.050Z,8.12
2019-01-18T16:26:46.792Z,8.02
2019-01-18T16:29:16.250Z,8.04
2019-01-18T16:31:45.766Z,8.01
2019-01-18T16:34:15.427Z,7.92
2019-01-18T16:36:44.936Z,7.90
2019-01-18T16:39:14.411Z,7.80
2019-01-18T16:41:43.902Z,7.75
2019-01-18T16:44:13.300Z,7.64
2019-01-18T16:46:42.880Z,7.61
2019-01-18T16:49:12.376Z,7.66
2019-01-18T16:51:41.885Z,7.67
2019-01-18T16:54:11.360Z,7.69
2019-01-18T16:56:40.890Z,7.52
2019-01-18T16:59:10.271Z,7.42
2019-01-18T17:01:39.767Z,7.51
2019-01-18T17:04:10.502Z,7.50
2019-01-18T17:06:39.925Z,7.41
2019-01-18T17:09:09.921Z,7.35
2019-01-18T17:11:39.447Z,7.30
2019-01-18T17:14:08.932Z,7.30
2019-01-18T17:16:44.774Z,7.24
2019-01-18T17:19:09.566Z,7.18
2019-01-18T17:21:39.059Z,7.20
2019-01-18T17:24:08.617Z,7.08
2019-01-18T17:26:38.205Z,7.01
2019-01-18T17:29:07.750Z,7.04
2019-01-18T17:31:37.164Z,6.99
2019-01-18T17:34:07.142Z,6.85
2019-01-18T17:37:04.252Z,6.79
2019-01-18T17:40:06.270Z,6.80
2019-01-18T17:43:07.913Z,6.77
2019-01-18T17:46:00.468Z,6.73
2019-01-18T17:49:07.257Z,6.80
2019-01-18T17:52:29.887Z,6.81
2019-01-18T17:55:17.994Z,6.71
2019-01-18T17:58:04.723Z,6.75
2019-01-18T18:00:57.625Z,6.73
2019-01-18T18:03:58.525Z,6.57
2019-01-18T18:06:42.210Z,6.49
2019-01-18T18:09:26.301Z,6.42
2019-01-18T18:12:08.776Z,6.34
2019-01-18T18:15:03.670Z,6.41
2019-01-18T18:18:01.271Z,6.53
2019-01-18T18:20:55.739Z,6.56
2019-01-18T18:24:03.108Z,6.55
2019-01-18T18:27:08.256Z,6.63
2019-01-18T18:30:30.287Z,6.50
2019-01-18T18:33:41.970Z,6.41
2019-01-18T18:36:48.157Z,6.28
2019-01-18T18:40:10.438Z,6.16
2019-01-18T18:43:44.954Z,6.13
2019-01-18T18:46:59.771Z,6.04
2019-01-18T18:50:13.233Z,6.00
2019-01-18T18:53:26.836Z,5.85
2019-01-18T18:56:24.789Z,5.86
2019-01-18T18:59:47.972Z,5.89
2019-01-18T19:02:39.685Z,5.79
2019-01-18T19:05:45.732Z,5.68
2019-01-18T19:08:59.687Z,5.56
2019-01-18T19:11:46.358Z,5.49
2019-01-18T19:14:54.076Z,5.50
2019-01-18T19:18:07.253Z,5.43
2019-01-18T19:21:17.664Z,5.38
2019-01-18T19:24:22.320Z,5.25
2019-01-18T19:27:40.870Z,5.22
2019-01-18T19:31:12.335Z,5.33
2019-01-18T19:34:25.283Z,5.38
2019-01-18T19:37:09.645Z,5.29
2019-01-18T19:40:01.185Z,5.24
2019-01-18T19:43:23.222Z,5.17
2019-01-18T19:46:09.233Z,5.11
2019-01-18T19:49:31.678Z,4.88
2019-01-18T19:52:29.498Z,4.80
2019-01-18T19:55:20.494Z,4.72
2019-01-18T19:58:39.560Z,4.73
2019-01-18T20:01:36.552Z,4.78
2019-01-18T20:04:20.262Z,4.71
2019-01-18T20:07:30.976Z,4.57
2019-01-18T20:10:40.194Z,4.40
2019-01-18T20:13:56.307Z,4.34
2019-01-18T20:16:50.726Z,4.22
2019-01-18T20:20:16.367Z,4.09
2019-01-18T20:27:13.207Z,3.92
2019-01-18T20:30:25.306Z,3.86
2019-01-18T20:33:34.058Z,3.78
2019-01-18T20:36:31.688Z,3.69
2019-01-18T20:39:32.186Z,3.59
2019-01-18T20:42:33.816Z,3.55
2019-01-18T20:45:32.535Z,3.48
2019-01-18T20:48:27.815Z,3.45
2019-01-18T20:51:44.066Z,3.45
2019-01-18T20:55:05.620Z,3.36
2019-01-18T20:58:07.372Z,3.26
2019-01-18T21:00:58.659Z,3.22
2019-01-18T21:04:00.135Z,3.23
2019-01-18T21:07:01.685Z,3.21
2019-01-18T21:09:55.275Z,3.24
2019-01-18T21:12:52.959Z,3.20
2019-01-18T21:16:18.178Z,3.17
2019-01-18T21:19:00.568Z,3.12
2019-01-18T21:22:03.766Z,3.14
2019-01-18T21:24:53.780Z,3.17
2019-01-18T21:27:44.866Z,3.13
2019-01-18T21:31:07.456Z,3.08
2019-01-18T21:34:10.166Z,3.11
2019-01-18T21:37:26.540Z,3.12
2019-01-18T21:40:45.854Z,3.15
2019-01-18T21:43:47.772Z,3.24
2019-01-18T21:46:49.485Z,3.29
2019-01-18T21:50:06.015Z,3.19
2019-01-18T21:53:12.878Z,3.19
2019-01-18T21:56:06.627Z,3.26
2019-01-18T21:59:07.593Z,3.31
2019-01-18T22:02:01.446Z,3.26
2019-01-18T22:04:48.425Z,3.22
2019-01-18T22:07:59.802Z,3.16
2019-01-18T22:11:03.326Z,3.10
2019-01-18T22:13:52.738Z,3.05
2019-01-18T22:17:21.009Z,3.01
2019-01-18T22:20:35.108Z,3.12
2019-01-18T22:23:31.211Z,3.05
2019-01-18T22:26:51.156Z,2.82
2019-01-18T22:29:37.941Z,2.70
2019-01-18T22:32:38.172Z,2.74
2019-01-18T22:35:51.957Z,2.74
2019-01-18T22:38:56.022Z,2.70
2019-01-18T22:42:12.334Z,2.59
2019-01-18T22:45:21.514Z,2.59
2019-01-18T22:48:07.617Z,2.53
2019-01-18T22:51:08.416Z,2.57
2019-01-18T22:54:29.415Z,2.53
2019-01-18T22:57:19.666Z,2.52
2019-01-18T23:00:47.524Z,2.54
2019-01-18T23:03:39.813Z,2.53
2019-01-18T23:06:37.331Z,2.56
2019-01-18T23:09:42.584Z,2.42
2019-01-18T23:12:45.020Z,2.53
2019-01-18T23:16:13.242Z,2.66
2019-01-18T23:19:01.466Z,2.65
2019-01-18T23:21:56.307Z,2.48
2019-01-18T23:24:41.193Z,2.40
2019-01-18T23:27:59.190Z,2.46
2019-01-18T23:30:45.226Z,2.53
2019-01-18T23:33:57.531Z,2.66
2019-01-18T23:37:07.286Z,2.58
2019-01-18T23:40:03.885Z,2.61
2019-01-18T23:42:52.509Z,2.77
2019-01-18T23:45:54.238Z,2.78
2019-01-18T23:49:04.993Z,2.58
2019-01-18T23:52:22.035Z,2.48
2019-01-18T23:55:21.263Z,2.72
2019-01-18T23:58:11.531Z,2.80
